sensor_id;sensor_type;location;lat;lon;timestamp;P1;durP1;ratioP1;P2;durP2;ratioP2
53650;SDS011;39552;45.776;15.892;2022-08-01T00:01:49;5.38;;;3.08;;
53650;SDS011;39552;45.776;15.892;2022-08-01T00:04:16;4.85;;;3.42;;
53650;SDS011;39552;45.776;15.892;2022-08-01T00:06:42;6.05;;;3.45;;
53650;SDS011;39552;45.776;15.892;2022-08-01T00:09:09;3.47;;;2.90;;
53650;SDS011;39552;45.776;15.892;2022-08-01T00:11:49;3.70;;;3.40;;
53650;SDS011;39552;45.776;15.892;2022-08-01T00:14:25;4.32;;;3.05;;
53650;SDS011;39552;45.776;15.892;2022-08-01T00:16:59;4.95;;;3.45;;
53650;SDS011;39552;45.776;15.892;2022-08-01T00:19:32;5.70;;;3.30;;
53650;SDS011;39552;45.776;15.892;2022-08-01T00:21:59;9.05;;;3.65;;
53650;SDS011;39552;45.776;15.892;2022-08-01T00:24:27;3.63;;;3.33;;
53650;SDS011;39552;45.776;15.892;2022-08-01T00:26:53;3.30;;;3.00;;
53650;SDS011;39552;45.776;15.892;2022-08-01T00:29:20;6.13;;;3.50;;
53650;SDS011;39552;45.776;15.892;2022-08-01T00:32:08;5.53;;;3.50;;
53650;SDS011;39552;45.776;15.892;2022-08-01T00:34:35;5.15;;;3.20;;
53650;SDS011;39552;45.776;15.892;2022-08-01T00:37:02;3.60;;;3.30;;
53650;SDS011;39552;45.776;15.892;2022-08-01T00:39:28;4.50;;;3.75;;
53650;SDS011;39552;45.776;15.892;2022-08-01T00:41:55;7.28;;;3.20;;
53650;SDS011;39552;45.776;15.892;2022-08-01T00:44:26;6.43;;;3.28;;
53650;SDS011;39552;45.776;15.892;2022-08-01T00:46:53;5.85;;;3.67;;
53650;SDS011;39552;45.776;15.892;2022-08-01T00:49:21;3.65;;;3.20;;
53650;SDS011;39552;45.776;15.892;2022-08-01T00:51:48;4.50;;;3.10;;
53650;SDS011;39552;45.776;15.892;2022-08-01T00:54:15;4.65;;;3.25;;
53650;SDS011;39552;45.776;15.892;2022-08-01T00:56:42;3.30;;;3.00;;
53650;SDS011;39552;45.776;15.892;2022-08-01T00:59:09;3.55;;;3.25;;
53650;SDS011;39552;45.776;15.892;2022-08-01T01:01:40;4.88;;;3.45;;
53650;SDS011;39552;45.776;15.892;2022-08-01T01:04:15;4.38;;;2.90;;
53650;SDS011;39552;45.776;15.892;2022-08-01T01:06:44;4.55;;;3.25;;
53650;SDS011;39552;45.776;15.892;2022-08-01T01:09:25;6.63;;;3.08;;
53650;SDS011;39552;45.776;15.892;2022-08-01T01:12:01;3.28;;;3.05;;
53650;SDS011;39552;45.776;15.892;2022-08-01T01:14:36;4.18;;;3.40;;
53650;SDS011;39552;45.776;15.892;2022-08-01T01:17:07;7.85;;;3.00;;
53650;SDS011;39552;45.776;15.892;2022-08-01T01:19:36;9.05;;;3.53;;
53650;SDS011;39552;45.776;15.892;2022-08-01T01:22:13;6.00;;;3.25;;
53650;SDS011;39552;45.776;15.892;2022-08-01T01:24:56;6.72;;;3.20;;
53650;SDS011;39552;45.776;15.892;2022-08-01T01:27:34;7.43;;;3.65;;
53650;SDS011;39552;45.776;15.892;2022-08-01T01:30:09;6.57;;;3.10;;
53650;SDS011;39552;45.776;15.892;2022-08-01T01:32:38;6.70;;;3.50;;
53650;SDS011;39552;45.776;15.892;2022-08-01T01:35:21;7.22;;;3.75;;
53650;SDS011;39552;45.776;15.892;2022-08-01T01:37:52;6.13;;;3.47;;
53650;SDS011;39552;45.776;15.892;2022-08-01T01:40:27;4.90;;;3.35;;
53650;SDS011;39552;45.776;15.892;2022-08-01T01:42:56;5.18;;;3.60;;
53650;SDS011;39552;45.776;15.892;2022-08-01T01:45:25;5.80;;;3.67;;
53650;SDS011;39552;45.776;15.892;2022-08-01T01:47:53;8.50;;;3.80;;
53650;SDS011;39552;45.776;15.892;2022-08-01T01:50:21;3.83;;;3.60;;
53650;SDS011;39552;45.776;15.892;2022-08-01T01:52:49;5.60;;;3.92;;
53650;SDS011;39552;45.776;15.892;2022-08-01T01:55:17;6.05;;;4.20;;
53650;SDS011;39552;45.776;15.892;2022-08-01T01:57:47;5.32;;;3.67;;
53650;SDS011;39552;45.776;15.892;2022-08-01T02:00:16;7.50;;;3.50;;
53650;SDS011;39552;45.776;15.892;2022-08-01T02:02:45;12.13;;;4.38;;
53650;SDS011;39552;45.776;15.892;2022-08-01T02:05:12;4.35;;;3.67;;
53650;SDS011;39552;45.776;15.892;2022-08-01T02:07:40;7.05;;;3.78;;
53650;SDS011;39552;45.776;15.892;2022-08-01T02:10:07;6.97;;;4.03;;
53650;SDS011;39552;45.776;15.892;2022-08-01T02:12:37;8.63;;;3.60;;
53650;SDS011;39552;45.776;15.892;2022-08-01T02:15:07;5.45;;;3.65;;
53650;SDS011;39552;45.776;15.892;2022-08-01T02:17:37;4.05;;;3.65;;
53650;SDS011;39552;45.776;15.892;2022-08-01T02:20:10;5.30;;;3.33;;
53650;SDS011;39552;45.776;15.892;2022-08-01T02:22:39;6.28;;;3.38;;
53650;SDS011;39552;45.776;15.892;2022-08-01T02:25:10;6.25;;;3.95;;
53650;SDS011;39552;45.776;15.892;2022-08-01T02:27:45;4.40;;;3.80;;
53650;SDS011;39552;45.776;15.892;2022-08-01T02:30:20;4.35;;;3.72;;
53650;SDS011;39552;45.776;15.892;2022-08-01T02:32:51;5.57;;;3.72;;
53650;SDS011;39552;45.776;15.892;2022-08-01T02:35:22;4.60;;;3.40;;
53650;SDS011;39552;45.776;15.892;2022-08-01T02:37:52;6.90;;;3.78;;
53650;SDS011;39552;45.776;15.892;2022-08-01T02:40:20;9.38;;;3.90;;
53650;SDS011;39552;45.776;15.892;2022-08-01T02:42:47;5.75;;;3.72;;
53650;SDS011;39552;45.776;15.892;2022-08-01T02:45:17;4.43;;;3.58;;
53650;SDS011;39552;45.776;15.892;2022-08-01T02:47:45;3.90;;;3.60;;
53650;SDS011;39552;45.776;15.892;2022-08-01T02:50:13;5.27;;;3.50;;
53650;SDS011;39552;45.776;15.892;2022-08-01T02:52:43;5.20;;;3.97;;
53650;SDS011;39552;45.776;15.892;2022-08-01T02:55:14;4.85;;;3.70;;
53650;SDS011;39552;45.776;15.892;2022-08-01T02:57:42;6.57;;;3.75;;
53650;SDS011;39552;45.776;15.892;2022-08-01T03:00:22;7.70;;;3.35;;
53650;SDS011;39552;45.776;15.892;2022-08-01T03:02:51;3.58;;;3.28;;
53650;SDS011;39552;45.776;15.892;2022-08-01T03:05:19;3.58;;;3.20;;
53650;SDS011;39552;45.776;15.892;2022-08-01T03:07:49;4.47;;;3.30;;
53650;SDS011;39552;45.776;15.892;2022-08-01T03:10:18;4.13;;;3.35;;
53650;SDS011;39552;45.776;15.892;2022-08-01T03:12:45;4.00;;;3.55;;
53650;SDS011;39552;45.776;15.892;2022-08-01T03:17:43;3.85;;;3.55;;
53650;SDS011;39552;45.776;15.892;2022-08-01T03:20:11;13.18;;;3.70;;
53650;SDS011;39552;45.776;15.892;2022-08-01T03:22:40;6.90;;;3.40;;
53650;SDS011;39552;45.776;15.892;2022-08-01T03:27:39;4.43;;;3.28;;
53650;SDS011;39552;45.776;15.892;2022-08-01T03:30:08;3.80;;;3.40;;
53650;SDS011;39552;45.776;15.892;2022-08-01T03:32:36;6.50;;;3.60;;
53650;SDS011;39552;45.776;15.892;2022-08-01T03:35:03;4.82;;;3.28;;
53650;SDS011;39552;45.776;15.892;2022-08-01T03:37:32;5.45;;;3.15;;
53650;SDS011;39552;45.776;15.892;2022-08-01T03:40:04;5.65;;;3.40;;
53650;SDS011;39552;45.776;15.892;2022-08-01T03:42:37;3.17;;;2.88;;
53650;SDS011;39552;45.776;15.892;2022-08-01T03:45:15;5.35;;;3.38;;
53650;SDS011;39552;45.776;15.892;2022-08-01T03:47:47;6.05;;;2.97;;
53650;SDS011;39552;45.776;15.892;2022-08-01T03:50:19;3.63;;;3.00;;
53650;SDS011;39552;45.776;15.892;2022-08-01T03:52:48;5.95;;;3.05;;
53650;SDS011;39552;45.776;15.892;2022-08-01T03:55:16;3.58;;;2.92;;
53650;SDS011;39552;45.776;15.892;2022-08-01T03:57:46;3.75;;;3.10;;
53650;SDS011;39552;45.776;15.892;2022-08-01T04:00:14;4.75;;;3.03;;
53650;SDS011;39552;45.776;15.892;2022-08-01T04:02:41;3.75;;;3.45;;
53650;SDS011;39552;45.776;15.892;2022-08-01T04:05:08;5.65;;;3.60;;
53650;SDS011;39552;45.776;15.892;2022-08-01T04:07:35;7.47;;;3.50;;
53650;SDS011;39552;45.776;15.892;2022-08-01T04:10:02;4.90;;;3.10;;
53650;SDS011;39552;45.776;15.892;2022-08-01T04:12:30;7.47;;;3.20;;
53650;SDS011;39552;45.776;15.892;2022-08-01T04:14:59;8.70;;;3.53;;
53650;SDS011;39552;45.776;15.892;2022-08-01T04:17:25;5.45;;;3.00;;
53650;SDS011;39552;45.776;15.892;2022-08-01T04:19:53;5.28;;;3.30;;
53650;SDS011;39552;45.776;15.892;2022-08-01T04:22:20;6.07;;;3.40;;
53650;SDS011;39552;45.776;15.892;2022-08-01T04:24:47;4.45;;;3.20;;
53650;SDS011;39552;45.776;15.892;2022-08-01T04:27:23;5.47;;;3.25;;
53650;SDS011;39552;45.776;15.892;2022-08-01T04:30:13;9.10;;;3.20;;
53650;SDS011;39552;45.776;15.892;2022-08-01T04:32:45;7.32;;;3.25;;
53650;SDS011;39552;45.776;15.892;2022-08-01T04:35:13;4.47;;;3.40;;
53650;SDS011;39552;45.776;15.892;2022-08-01T04:38:04;8.43;;;3.22;;
53650;SDS011;39552;45.776;15.892;2022-08-01T04:40:33;6.78;;;2.88;;
53650;SDS011;39552;45.776;15.892;2022-08-01T04:43:01;3.38;;;3.17;;
53650;SDS011;39552;45.776;15.892;2022-08-01T04:45:29;4.53;;;2.90;;
53650;SDS011;39552;45.776;15.892;2022-08-01T04:47:56;5.25;;;3.10;;
53650;SDS011;39552;45.776;15.892;2022-08-01T04:50:24;4.18;;;3.35;;
53650;SDS011;39552;45.776;15.892;2022-08-01T04:52:51;4.45;;;3.60;;
53650;SDS011;39552;45.776;15.892;2022-08-01T04:55:18;7.97;;;3.45;;
53650;SDS011;39552;45.776;15.892;2022-08-01T04:57:45;6.40;;;3.90;;
53650;SDS011;39552;45.776;15.892;2022-08-01T05:00:13;7.50;;;3.35;;
53650;SDS011;39552;45.776;15.892;2022-08-01T05:02:42;4.97;;;3.53;;
53650;SDS011;39552;45.776;15.892;2022-08-01T05:05:09;3.67;;;3.30;;
53650;SDS011;39552;45.776;15.892;2022-08-01T05:07:38;6.60;;;3.70;;
53650;SDS011;39552;45.776;15.892;2022-08-01T05:10:10;7.68;;;3.75;;
53650;SDS011;39552;45.776;15.892;2022-08-01T05:12:37;8.82;;;3.75;;
53650;SDS011;39552;45.776;15.892;2022-08-01T05:15:05;4.07;;;3.25;;
53650;SDS011;39552;45.776;15.892;2022-08-01T05:17:39;4.93;;;3.33;;
53650;SDS011;39552;45.776;15.892;2022-08-01T05:20:08;5.05;;;3.17;;
53650;SDS011;39552;45.776;15.892;2022-08-01T05:22:36;6.13;;;3.70;;
53650;SDS011;39552;45.776;15.892;2022-08-01T05:25:03;7.05;;;3.28;;
53650;SDS011;39552;45.776;15.892;2022-08-01T05:27:31;7.32;;;3.45;;
53650;SDS011;39552;45.776;15.892;2022-08-01T05:29:59;5.90;;;3.05;;
53650;SDS011;39552;45.776;15.892;2022-08-01T05:32:25;7.95;;;3.50;;
53650;SDS011;39552;45.776;15.892;2022-08-01T05:34:52;9.00;;;3.72;;
53650;SDS011;39552;45.776;15.892;2022-08-01T05:37:20;3.40;;;3.13;;
53650;SDS011;39552;45.776;15.892;2022-08-01T05:39:47;4.32;;;3.60;;
53650;SDS011;39552;45.776;15.892;2022-08-01T05:42:14;3.88;;;3.30;;
53650;SDS011;39552;45.776;15.892;2022-08-01T05:44:40;6.43;;;3.10;;
53650;SDS011;39552;45.776;15.892;2022-08-01T05:47:07;4.60;;;2.92;;
53650;SDS011;39552;45.776;15.892;2022-08-01T05:49:34;5.45;;;3.30;;
53650;SDS011;39552;45.776;15.892;2022-08-01T05:52:01;3.65;;;3.25;;
53650;SDS011;39552;45.776;15.892;2022-08-01T05:54:29;5.72;;;2.88;;
53650;SDS011;39552;45.776;15.892;2022-08-01T05:56:56;8.70;;;3.40;;
53650;SDS011;39552;45.776;15.892;2022-08-01T05:59:23;5.93;;;2.95;;
53650;SDS011;39552;45.776;15.892;2022-08-01T06:01:50;8.57;;;3.30;;
53650;SDS011;39552;45.776;15.892;2022-08-01T06:04:16;4.85;;;3.20;;
53650;SDS011;39552;45.776;15.892;2022-08-01T06:06:43;3.63;;;2.97;;
53650;SDS011;39552;45.776;15.892;2022-08-01T06:09:10;9.27;;;2.95;;
53650;SDS011;39552;45.776;15.892;2022-08-01T06:11:38;5.22;;;3.13;;
53650;SDS011;39552;45.776;15.892;2022-08-01T06:14:05;7.15;;;3.20;;
53650;SDS011;39552;45.776;15.892;2022-08-01T06:16:32;6.22;;;3.13;;
53650;SDS011;39552;45.776;15.892;2022-08-01T06:18:59;5.13;;;3.00;;
53650;SDS011;39552;45.776;15.892;2022-08-01T06:21:26;3.00;;;2.80;;
53650;SDS011;39552;45.776;15.892;2022-08-01T06:23:53;7.15;;;3.20;;
53650;SDS011;39552;45.776;15.892;2022-08-01T06:26:19;10.10;;;3.08;;
53650;SDS011;39552;45.776;15.892;2022-08-01T06:28:48;4.75;;;3.30;;
53650;SDS011;39552;45.776;15.892;2022-08-01T06:31:15;9.70;;;3.40;;
53650;SDS011;39552;45.776;15.892;2022-08-01T06:33:41;3.20;;;3.00;;
53650;SDS011;39552;45.776;15.892;2022-08-01T06:36:08;3.40;;;3.10;;
53650;SDS011;39552;45.776;15.892;2022-08-01T06:38:34;3.30;;;2.95;;
53650;SDS011;39552;45.776;15.892;2022-08-01T06:41:01;7.35;;;2.90;;
53650;SDS011;39552;45.776;15.892;2022-08-01T06:43:28;4.50;;;2.72;;
53650;SDS011;39552;45.776;15.892;2022-08-01T06:45:56;6.05;;;3.13;;
53650;SDS011;39552;45.776;15.892;2022-08-01T06:48:23;7.82;;;3.28;;
53650;SDS011;39552;45.776;15.892;2022-08-01T06:50:50;5.38;;;2.72;;
53650;SDS011;39552;45.776;15.892;2022-08-01T06:53:16;3.08;;;2.72;;
53650;SDS011;39552;45.776;15.892;2022-08-01T06:55:43;4.07;;;3.50;;
53650;SDS011;39552;45.776;15.892;2022-08-01T06:58:10;3.50;;;2.70;;
53650;SDS011;39552;45.776;15.892;2022-08-01T07:00:36;7.80;;;2.80;;
53650;SDS011;39552;45.776;15.892;2022-08-01T07:03:05;3.45;;;2.70;;
53650;SDS011;39552;45.776;15.892;2022-08-01T07:05:31;5.35;;;2.92;;
53650;SDS011;39552;45.776;15.892;2022-08-01T07:07:58;3.03;;;2.70;;
53650;SDS011;39552;45.776;15.892;2022-08-01T07:10:25;6.03;;;3.42;;
53650;SDS011;39552;45.776;15.892;2022-08-01T07:12:52;5.20;;;2.90;;
53650;SDS011;39552;45.776;15.892;2022-08-01T07:15:18;6.68;;;2.70;;
53650;SDS011;39552;45.776;15.892;2022-08-01T07:17:45;2.63;;;2.40;;
53650;SDS011;39552;45.776;15.892;2022-08-01T07:20:13;4.95;;;2.55;;
53650;SDS011;39552;45.776;15.892;2022-08-01T07:22:42;4.13;;;2.55;;
53650;SDS011;39552;45.776;15.892;2022-08-01T07:25:12;4.03;;;3.00;;
53650;SDS011;39552;45.776;15.892;2022-08-01T07:27:39;4.05;;;2.70;;
53650;SDS011;39552;45.776;15.892;2022-08-01T07:30:06;3.50;;;2.40;;
53650;SDS011;39552;45.776;15.892;2022-08-01T07:32:34;2.80;;;2.42;;
53650;SDS011;39552;45.776;15.892;2022-08-01T07:35:01;5.28;;;2.35;;
53650;SDS011;39552;45.776;15.892;2022-08-01T07:37:29;4.90;;;2.58;;
53650;SDS011;39552;45.776;15.892;2022-08-01T07:40:14;2.97;;;2.15;;
53650;SDS011;39552;45.776;15.892;2022-08-01T07:42:42;2.42;;;1.90;;
53650;SDS011;39552;45.776;15.892;2022-08-01T07:45:09;2.13;;;1.88;;
53650;SDS011;39552;45.776;15.892;2022-08-01T07:47:36;3.65;;;2.03;;
53650;SDS011;39552;45.776;15.892;2022-08-01T07:50:04;2.60;;;2.20;;
53650;SDS011;39552;45.776;15.892;2022-08-01T07:52:33;3.13;;;2.10;;
53650;SDS011;39552;45.776;15.892;2022-08-01T07:54:59;4.22;;;2.30;;
53650;SDS011;39552;45.776;15.892;2022-08-01T07:57:26;4.95;;;2.30;;
53650;SDS011;39552;45.776;15.892;2022-08-01T07:59:53;2.75;;;2.13;;
53650;SDS011;39552;45.776;15.892;2022-08-01T08:02:20;3.05;;;2.30;;
53650;SDS011;39552;45.776;15.892;2022-08-01T08:04:47;3.22;;;2.20;;
53650;SDS011;39552;45.776;15.892;2022-08-01T08:07:14;6.72;;;2.22;;
53650;SDS011;39552;45.776;15.892;2022-08-01T08:09:43;6.65;;;2.03;;
53650;SDS011;39552;45.776;15.892;2022-08-01T08:12:16;3.28;;;1.98;;
53650;SDS011;39552;45.776;15.892;2022-08-01T08:14:43;5.45;;;2.63;;
53650;SDS011;39552;45.776;15.892;2022-08-01T08:17:10;4.15;;;2.00;;
53650;SDS011;39552;45.776;15.892;2022-08-01T08:19:37;4.22;;;2.03;;
53650;SDS011;39552;45.776;15.892;2022-08-01T08:22:04;2.65;;;2.03;;
53650;SDS011;39552;45.776;15.892;2022-08-01T08:24:33;8.75;;;2.00;;
53650;SDS011;39552;45.776;15.892;2022-08-01T08:27:02;3.95;;;1.85;;
53650;SDS011;39552;45.776;15.892;2022-08-01T08:29:30;2.65;;;1.80;;
53650;SDS011;39552;45.776;15.892;2022-08-01T08:31:57;6.32;;;2.00;;
53650;SDS011;39552;45.776;15.892;2022-08-01T08:34:25;3.22;;;2.08;;
53650;SDS011;39552;45.776;15.892;2022-08-01T08:36:53;6.72;;;2.03;;
53650;SDS011;39552;45.776;15.892;2022-08-01T08:39:20;3.10;;;2.13;;
53650;SDS011;39552;45.776;15.892;2022-08-01T08:41:48;2.67;;;1.80;;
53650;SDS011;39552;45.776;15.892;2022-08-01T08:44:17;3.63;;;1.98;;
53650;SDS011;39552;45.776;15.892;2022-08-01T08:49:12;4.70;;;1.98;;
53650;SDS011;39552;45.776;15.892;2022-08-01T08:51:43;3.03;;;2.25;;
53650;SDS011;39552;45.776;15.892;2022-08-01T08:54:13;2.17;;;1.85;;
53650;SDS011;39552;45.776;15.892;2022-08-01T08:56:41;4.75;;;2.00;;
53650;SDS011;39552;45.776;15.892;2022-08-01T09:01:39;5.82;;;2.25;;
53650;SDS011;39552;45.776;15.892;2022-08-01T09:04:06;6.30;;;2.17;;
53650;SDS011;39552;45.776;15.892;2022-08-01T09:06:33;3.88;;;2.20;;
53650;SDS011;39552;45.776;15.892;2022-08-01T09:09:01;4.65;;;2.35;;
53650;SDS011;39552;45.776;15.892;2022-08-01T09:11:27;2.83;;;2.00;;
53650;SDS011;39552;45.776;15.892;2022-08-01T09:14:04;2.30;;;2.10;;
53650;SDS011;39552;45.776;15.892;2022-08-01T09:16:33;10.37;;;2.30;;
53650;SDS011;39552;45.776;15.892;2022-08-01T09:19:08;2.42;;;1.90;;
53650;SDS011;39552;45.776;15.892;2022-08-01T09:21:56;2.10;;;2.00;;
53650;SDS011;39552;45.776;15.892;2022-08-01T09:24:24;6.13;;;2.30;;
53650;SDS011;39552;45.776;15.892;2022-08-01T09:26:56;6.63;;;2.20;;
53650;SDS011;39552;45.776;15.892;2022-08-01T09:29:24;2.10;;;1.90;;
53650;SDS011;39552;45.776;15.892;2022-08-01T09:32:05;4.53;;;2.15;;
53650;SDS011;39552;45.776;15.892;2022-08-01T09:34:34;2.60;;;2.20;;
53650;SDS011;39552;45.776;15.892;2022-08-01T09:37:01;2.72;;;1.95;;
53650;SDS011;39552;45.776;15.892;2022-08-01T09:39:31;2.92;;;2.00;;
53650;SDS011;39552;45.776;15.892;2022-08-01T09:44:37;2.85;;;2.10;;
53650;SDS011;39552;45.776;15.892;2022-08-01T09:47:09;3.17;;;1.73;;
53650;SDS011;39552;45.776;15.892;2022-08-01T09:49:42;2.22;;;1.83;;
53650;SDS011;39552;45.776;15.892;2022-08-01T09:52:18;2.88;;;1.80;;
53650;SDS011;39552;45.776;15.892;2022-08-01T09:54:54;2.55;;;1.88;;
53650;SDS011;39552;45.776;15.892;2022-08-01T09:57:22;3.40;;;1.80;;
53650;SDS011;39552;45.776;15.892;2022-08-01T09:59:50;2.03;;;1.83;;
53650;SDS011;39552;45.776;15.892;2022-08-01T10:02:28;2.10;;;1.90;;
53650;SDS011;39552;45.776;15.892;2022-08-01T10:04:58;2.08;;;1.75;;
53650;SDS011;39552;45.776;15.892;2022-08-01T10:07:29;3.67;;;1.70;;
53650;SDS011;39552;45.776;15.892;2022-08-01T10:10:10;1.73;;;1.63;;
53650;SDS011;39552;45.776;15.892;2022-08-01T10:12:40;2.67;;;1.70;;
53650;SDS011;39552;45.776;15.892;2022-08-01T10:15:11;1.77;;;1.67;;
53650;SDS011;39552;45.776;15.892;2022-08-01T10:17:40;1.92;;;1.60;;
53650;SDS011;39552;45.776;15.892;2022-08-01T10:20:18;5.07;;;1.75;;
53650;SDS011;39552;45.776;15.892;2022-08-01T10:22:58;2.80;;;1.70;;
53650;SDS011;39552;45.776;15.892;2022-08-01T10:25:28;3.88;;;1.50;;
53650;SDS011;39552;45.776;15.892;2022-08-01T10:28:10;1.80;;;1.70;;
53650;SDS011;39552;45.776;15.892;2022-08-01T10:30:43;1.85;;;1.55;;
53650;SDS011;39552;45.776;15.892;2022-08-01T10:33:14;3.97;;;1.60;;
53650;SDS011;39552;45.776;15.892;2022-08-01T10:36:03;3.23;;;1.50;;
53650;SDS011;39552;45.776;15.892;2022-08-01T10:38:34;2.90;;;1.58;;
53650;SDS011;39552;45.776;15.892;2022-08-01T10:41:02;2.63;;;1.50;;
53650;SDS011;39552;45.776;15.892;2022-08-01T10:43:32;1.90;;;1.67;;
53650;SDS011;39552;45.776;15.892;2022-08-01T10:46:00;6.72;;;1.40;;
53650;SDS011;39552;45.776;15.892;2022-08-01T10:48:31;5.68;;;1.75;;
53650;SDS011;39552;45.776;15.892;2022-08-01T10:51:19;1.67;;;1.58;;
53650;SDS011;39552;45.776;15.892;2022-08-01T10:53:47;4.72;;;1.60;;
53650;SDS011;39552;45.776;15.892;2022-08-01T10:56:20;1.80;;;1.67;;
53650;SDS011;39552;45.776;15.892;2022-08-01T10:58:55;2.30;;;1.70;;
53650;SDS011;39552;45.776;15.892;2022-08-01T11:01:36;1.70;;;1.60;;
53650;SDS011;39552;45.776;15.892;2022-08-01T11:04:11;4.93;;;1.80;;
53650;SDS011;39552;45.776;15.892;2022-08-01T11:06:46;3.70;;;1.60;;
53650;SDS011;39552;45.776;15.892;2022-08-01T11:09:23;6.10;;;1.60;;
53650;SDS011;39552;45.776;15.892;2022-08-01T11:12:03;1.60;;;1.50;;
53650;SDS011;39552;45.776;15.892;2022-08-01T11:14:33;2.55;;;1.50;;
53650;SDS011;39552;45.776;15.892;2022-08-01T11:17:30;2.15;;;1.50;;
53650;SDS011;39552;45.776;15.892;2022-08-01T11:20:03;1.42;;;1.30;;
53650;SDS011;39552;45.776;15.892;2022-08-01T11:22:45;1.98;;;1.83;;
53650;SDS011;39552;45.776;15.892;2022-08-01T11:29:14;1.77;;;1.67;;
53650;SDS011;39552;45.776;15.892;2022-08-01T11:31:47;3.22;;;1.77;;
53650;SDS011;39552;45.776;15.892;2022-08-01T11:34:15;2.53;;;1.50;;
53650;SDS011;39552;45.776;15.892;2022-08-01T11:36:42;2.60;;;1.77;;
53650;SDS011;39552;45.776;15.892;2022-08-01T11:39:30;1.88;;;1.77;;
53650;SDS011;39552;45.776;15.892;2022-08-01T11:42:17;2.05;;;1.90;;
53650;SDS011;39552;45.776;15.892;2022-08-01T11:44:49;2.35;;;1.77;;
53650;SDS011;39552;45.776;15.892;2022-08-01T11:47:16;1.65;;;1.20;;
53650;SDS011;39552;45.776;15.892;2022-08-01T11:49:47;1.95;;;1.65;;
53650;SDS011;39552;45.776;15.892;2022-08-01T11:54:45;4.47;;;1.70;;
53650;SDS011;39552;45.776;15.892;2022-08-01T11:57:13;2.60;;;2.00;;
53650;SDS011;39552;45.776;15.892;2022-08-01T11:59:42;4.37;;;1.70;;
53650;SDS011;39552;45.776;15.892;2022-08-01T12:02:30;2.08;;;1.90;;
53650;SDS011;39552;45.776;15.892;2022-08-01T12:07:27;3.30;;;1.90;;
53650;SDS011;39552;45.776;15.892;2022-08-01T12:09:58;1.70;;;1.60;;
53650;SDS011;39552;45.776;15.892;2022-08-01T12:12:26;2.58;;;1.77;;
53650;SDS011;39552;45.776;15.892;2022-08-01T12:14:55;1.83;;;1.40;;
53650;SDS011;39552;45.776;15.892;2022-08-01T12:17:30;2.25;;;1.45;;
53650;SDS011;39552;45.776;15.892;2022-08-01T12:19:58;3.13;;;1.60;;
53650;SDS011;39552;45.776;15.892;2022-08-01T12:22:25;1.92;;;1.67;;
53650;SDS011;39552;45.776;15.892;2022-08-01T12:24:52;2.30;;;1.40;;
53650;SDS011;39552;45.776;15.892;2022-08-01T12:27:28;3.42;;;1.60;;
53650;SDS011;39552;45.776;15.892;2022-08-01T12:29:56;1.65;;;1.40;;
53650;SDS011;39552;45.776;15.892;2022-08-01T12:32:25;3.47;;;1.40;;
53650;SDS011;39552;45.776;15.892;2022-08-01T12:35:01;1.55;;;1.45;;
53650;SDS011;39552;45.776;15.892;2022-08-01T12:37:29;1.45;;;1.35;;
53650;SDS011;39552;45.776;15.892;2022-08-01T12:39:57;1.60;;;1.48;;
53650;SDS011;39552;45.776;15.892;2022-08-01T12:42:24;3.85;;;1.50;;
53650;SDS011;39552;45.776;15.892;2022-08-01T12:44:52;1.60;;;1.25;;
53650;SDS011;39552;45.776;15.892;2022-08-01T12:47:19;2.17;;;1.40;;
53650;SDS011;39552;45.776;15.892;2022-08-01T12:49:47;6.10;;;1.60;;
53650;SDS011;39552;45.776;15.892;2022-08-01T12:52:15;1.75;;;1.40;;
53650;SDS011;39552;45.776;15.892;2022-08-01T12:57:43;2.22;;;1.45;;
53650;SDS011;39552;45.776;15.892;2022-08-01T13:00:14;1.77;;;1.25;;
53650;SDS011;39552;45.776;15.892;2022-08-01T13:02:46;1.33;;;1.23;;
53650;SDS011;39552;45.776;15.892;2022-08-01T13:05:17;1.52;;;1.40;;
53650;SDS011;39552;45.776;15.892;2022-08-01T13:07:47;2.40;;;1.27;;
53650;SDS011;39552;45.776;15.892;2022-08-01T13:13:11;1.67;;;1.40;;
53650;SDS011;39552;45.776;15.892;2022-08-01T13:19:16;3.50;;;1.60;;
53650;SDS011;39552;45.776;15.892;2022-08-01T13:27:26;2.45;;;1.75;;
53650;SDS011;39552;45.776;15.892;2022-08-01T13:29:52;2.22;;;1.60;;
53650;SDS011;39552;45.776;15.892;2022-08-01T13:32:20;2.72;;;1.60;;
53650;SDS011;39552;45.776;15.892;2022-08-01T13:37:46;3.08;;;1.27;;
53650;SDS011;39552;45.776;15.892;2022-08-01T13:40:22;2.08;;;1.50;;
53650;SDS011;39552;45.776;15.892;2022-08-01T13:42:50;2.88;;;1.40;;
53650;SDS011;39552;45.776;15.892;2022-08-01T13:45:17;4.20;;;1.50;;
53650;SDS011;39552;45.776;15.892;2022-08-01T13:47:47;2.20;;;1.67;;
53650;SDS011;39552;45.776;15.892;2022-08-01T13:50:36;5.05;;;1.83;;
53650;SDS011;39552;45.776;15.892;2022-08-01T13:59:09;4.70;;;1.45;;
53650;SDS011;39552;45.776;15.892;2022-08-01T14:01:36;1.65;;;1.55;;
53650;SDS011;39552;45.776;15.892;2022-08-01T14:04:03;4.78;;;1.80;;
53650;SDS011;39552;45.776;15.892;2022-08-01T14:06:32;1.98;;;1.77;;
53650;SDS011;39552;45.776;15.892;2022-08-01T14:09:09;5.05;;;1.40;;
53650;SDS011;39552;45.776;15.892;2022-08-01T14:11:56;2.42;;;1.50;;
53650;SDS011;39552;45.776;15.892;2022-08-01T14:14:23;3.95;;;1.77;;
53650;SDS011;39552;45.776;15.892;2022-08-01T14:17:01;3.80;;;1.57;;
53650;SDS011;39552;45.776;15.892;2022-08-01T14:19:44;1.80;;;1.60;;
53650;SDS011;39552;45.776;15.892;2022-08-01T14:24:46;2.45;;;1.67;;
53650;SDS011;39552;45.776;15.892;2022-08-01T14:29:49;4.82;;;1.70;;
53650;SDS011;39552;45.776;15.892;2022-08-01T14:32:29;1.42;;;1.00;;
53650;SDS011;39552;45.776;15.892;2022-08-01T14:38:21;1.85;;;1.58;;
53650;SDS011;39552;45.776;15.892;2022-08-01T14:40:57;1.60;;;1.50;;
53650;SDS011;39552;45.776;15.892;2022-08-01T14:43:24;4.75;;;1.50;;
53650;SDS011;39552;45.776;15.892;2022-08-01T14:45:58;2.70;;;1.55;;
53650;SDS011;39552;45.776;15.892;2022-08-01T14:48:25;4.38;;;1.70;;
53650;SDS011;39552;45.776;15.892;2022-08-01T14:50:51;2.00;;;1.50;;
53650;SDS011;39552;45.776;15.892;2022-08-01T14:53:18;1.60;;;1.50;;
53650;SDS011;39552;45.776;15.892;2022-08-01T14:55:46;1.17;;;1.17;;
53650;SDS011;39552;45.776;15.892;2022-08-01T14:58:13;3.22;;;1.48;;
53650;SDS011;39552;45.776;15.892;2022-08-01T15:00:40;2.63;;;1.40;;
53650;SDS011;39552;45.776;15.892;2022-08-01T15:03:07;1.70;;;1.50;;
53650;SDS011;39552;45.776;15.892;2022-08-01T15:05:34;2.13;;;0.80;;
53650;SDS011;39552;45.776;15.892;2022-08-01T15:08:01;2.05;;;1.30;;
53650;SDS011;39552;45.776;15.892;2022-08-01T15:10:28;1.48;;;1.38;;
53650;SDS011;39552;45.776;15.892;2022-08-01T15:12:56;7.35;;;1.67;;
53650;SDS011;39552;45.776;15.892;2022-08-01T15:15:23;3.00;;;1.70;;
53650;SDS011;39552;45.776;15.892;2022-08-01T15:17:49;9.77;;;1.73;;
53650;SDS011;39552;45.776;15.892;2022-08-01T15:20:16;3.45;;;1.30;;
53650;SDS011;39552;45.776;15.892;2022-08-01T15:22:43;2.30;;;1.40;;
53650;SDS011;39552;45.776;15.892;2022-08-01T15:25:10;3.60;;;1.40;;
53650;SDS011;39552;45.776;15.892;2022-08-01T15:27:37;2.75;;;1.40;;
53650;SDS011;39552;45.776;15.892;2022-08-01T15:30:05;5.57;;;1.80;;
53650;SDS011;39552;45.776;15.892;2022-08-01T15:32:33;1.55;;;1.45;;
53650;SDS011;39552;45.776;15.892;2022-08-01T15:35:00;4.03;;;1.70;;
53650;SDS011;39552;45.776;15.892;2022-08-01T15:37:26;6.18;;;1.90;;
53650;SDS011;39552;45.776;15.892;2022-08-01T15:39:53;5.35;;;1.80;;
53650;SDS011;39552;45.776;15.892;2022-08-01T15:42:21;8.57;;;2.10;;
53650;SDS011;39552;45.776;15.892;2022-08-01T15:44:52;7.55;;;2.22;;